Newbiggin-by-the-Sea, United Kingdom
Current Conditions -  °F | °C
As of 7:20 PM on Monday 22 Dec 2014 (Local Time) from EGNT Reporting Station
Light Rain Light Rain  
Wind Chill: 50°   Ceiling: 1000
Heat Index: 50°   Visibility: 5mi
Dew Point: 48°   Wind: 8mph
Humidity: 94%   Direction: 290°WNW
Pressure: 29.65"   Gusts: NA
Location:  55.19°N, 1.51°W
Report Text: EGNT 221920Z 29007KT 8000 -RA BKN010 10/09 Q1004
Loading
Personal Weather Stations






























Interactive Weather Map New forecast layout! Learn more

10-Day Weather Forecast

Advertisements
Track Severe Weather on mobile